createdAt,value
2016-03-20T00:00:03.914Z,0
2016-03-20T00:01:03.932Z,0
2016-03-20T00:02:03.935Z,0
2016-03-20T00:03:03.938Z,0
2016-03-20T00:04:03.925Z,0
2016-03-20T00:05:03.928Z,0
2016-03-20T00:06:03.930Z,0
2016-03-20T00:07:03.792Z,0
2016-03-20T00:08:03.950Z,0
2016-03-20T00:09:03.953Z,0
2016-03-20T00:10:03.956Z,0
2016-03-20T00:11:03.928Z,0
2016-03-20T00:12:03.930Z,0
2016-03-20T00:13:03.918Z,0
2016-03-20T00:14:03.920Z,0
2016-03-20T00:15:03.924Z,0
2016-03-20T00:16:03.926Z,0
2016-03-20T00:17:03.929Z,0
2016-03-20T00:18:03.915Z,0
2016-03-20T00:19:03.919Z,0
2016-03-20T00:20:03.921Z,0
2016-03-20T00:21:03.924Z,0
2016-03-20T00:22:03.910Z,0
2016-03-20T00:23:03.929Z,0
2016-03-20T00:24:03.900Z,0
2016-03-20T00:25:03.918Z,0
2016-03-20T00:26:03.921Z,0
2016-03-20T00:27:03.924Z,0
2016-03-20T00:28:03.911Z,0
2016-03-20T00:29:03.914Z,0
2016-03-20T00:30:03.901Z,0
2016-03-20T00:31:03.919Z,0
2016-03-20T00:32:03.906Z,0
2016-03-20T00:33:03.893Z,0
2016-03-20T00:34:03.911Z,0
2016-03-20T00:35:03.914Z,0
2016-03-20T00:36:03.917Z,0
2016-03-20T00:37:03.904Z,0
2016-03-20T00:38:03.906Z,0
2016-03-20T00:39:03.894Z,0
2016-03-20T00:40:03.897Z,0
2016-03-20T00:41:03.884Z,0
2016-03-20T00:42:03.871Z,0
2016-03-20T00:43:03.889Z,0
2016-03-20T00:44:03.891Z,0
2016-03-20T00:45:03.894Z,0
2016-03-20T00:46:03.897Z,0
2016-03-20T00:47:03.884Z,0
2016-03-20T00:48:03.888Z,0
2016-03-20T00:49:03.874Z,0
2016-03-20T00:50:03.893Z,0
2016-03-20T00:51:03.895Z,0
2016-03-20T00:52:03.898Z,0
2016-03-20T00:53:03.868Z,0
2016-03-20T00:54:03.871Z,0
2016-03-20T00:55:03.874Z,0
2016-03-20T00:56:03.877Z,0
2016-03-20T00:57:03.879Z,0
2016-03-20T00:58:03.867Z,0
2016-03-20T00:59:03.885Z,0
2016-03-20T01:00:03.873Z,0
2016-03-20T01:01:03.937Z,0
2016-03-20T01:02:03.878Z,0
2016-03-20T01:03:03.881Z,0
2016-03-20T01:04:03.867Z,0
2016-03-20T01:05:03.870Z,0
2016-03-20T01:06:03.873Z,0
2016-03-20T01:07:03.860Z,0
2016-03-20T01:08:03.862Z,0
2016-03-20T01:09:03.849Z,0
2016-03-20T01:10:03.853Z,0
2016-03-20T01:11:03.855Z,0
2016-03-20T01:12:03.858Z,0
2016-03-20T01:13:03.860Z,0
2016-03-20T01:14:03.878Z,0
2016-03-20T01:15:03.866Z,0
2016-03-20T01:16:03.930Z,0
2016-03-20T01:17:03.840Z,0
2016-03-20T01:18:03.843Z,0
2016-03-20T01:19:03.861Z,0
2016-03-20T01:20:03.863Z,0
2016-03-20T01:21:03.851Z,0
2016-03-20T01:22:03.837Z,0
2016-03-20T01:23:03.840Z,0
2016-03-20T01:24:03.859Z,0
2016-03-20T01:25:03.862Z,0
2016-03-20T01:26:03.849Z,0
2016-03-20T01:27:03.851Z,0
2016-03-20T01:28:03.838Z,0
2016-03-20T01:29:03.826Z,0
2016-03-20T01:30:03.672Z,0
2016-03-20T01:31:03.846Z,0
2016-03-20T01:32:03.849Z,0
2016-03-20T01:33:03.852Z,0
2016-03-20T01:34:03.854Z,0
2016-03-20T01:35:03.825Z,0
2016-03-20T01:36:03.828Z,0
2016-03-20T01:37:03.862Z,0
2016-03-20T01:38:03.834Z,0
2016-03-20T01:39:03.852Z,0
2016-03-20T01:40:03.824Z,0
2016-03-20T01:41:03.811Z,0
2016-03-20T01:42:03.861Z,0
2016-03-20T01:43:03.816Z,0
2016-03-20T01:44:03.819Z,0
2016-03-20T01:45:03.821Z,0
2016-03-20T01:46:03.855Z,0
2016-03-20T01:47:03.827Z,0
2016-03-20T01:48:03.813Z,0
2016-03-20T01:49:03.082Z,0
2016-03-20T01:50:03.819Z,0
2016-03-20T01:51:03.807Z,0
2016-03-20T01:52:03.825Z,0
2016-03-20T01:53:03.843Z,0
2016-03-20T01:54:03.799Z,0
2016-03-20T01:55:03.818Z,0
2016-03-20T01:56:03.804Z,0
2016-03-20T01:57:03.822Z,0
2016-03-20T01:58:03.841Z,0
2016-03-20T01:59:03.812Z,0
2016-03-20T02:00:03.831Z,0
2016-03-20T02:01:03.833Z,0
2016-03-20T02:02:03.804Z,0
2016-03-20T02:03:03.839Z,0
2016-03-20T02:04:03.810Z,0
2016-03-20T02:05:03.813Z,0
2016-03-20T02:06:03.815Z,0
2016-03-20T02:07:03.802Z,0
2016-03-20T02:08:03.805Z,0
2016-03-20T02:09:03.792Z,0
2016-03-20T02:10:03.795Z,0
2016-03-20T02:11:03.798Z,0
2016-03-20T02:12:03.785Z,0
2016-03-20T02:13:03.819Z,0
2016-03-20T02:14:03.790Z,0
2016-03-20T02:15:03.808Z,0
2016-03-20T02:16:03.795Z,0
2016-03-20T02:17:03.783Z,0
2016-03-20T02:18:03.800Z,0
2016-03-20T02:19:03.850Z,0
2016-03-20T02:20:03.790Z,0
2016-03-20T02:21:03.808Z,0
2016-03-20T02:22:03.780Z,0
2016-03-20T02:23:03.814Z,0
2016-03-20T02:24:03.786Z,0
2016-03-20T02:25:03.788Z,0
2016-03-20T02:26:03.791Z,0
2016-03-20T02:27:03.779Z,0
2016-03-20T02:28:03.796Z,0
2016-03-20T02:29:03.768Z,0
2016-03-20T02:30:03.787Z,0
2016-03-20T02:31:03.789Z,0
2016-03-20T02:32:03.776Z,0
2016-03-20T02:33:03.763Z,0
2016-03-20T02:34:03.781Z,0
2016-03-20T02:35:03.784Z,0
2016-03-20T02:36:03.771Z,0
2016-03-20T02:37:03.790Z,0
2016-03-20T02:38:03.792Z,0
2016-03-20T02:39:03.779Z,0
2016-03-20T02:40:03.798Z,0
2016-03-20T02:41:03.769Z,0
2016-03-20T02:42:03.772Z,0
2016-03-20T02:43:03.758Z,0
2016-03-20T02:44:03.761Z,0
2016-03-20T02:45:03.780Z,0
2016-03-20T02:46:03.766Z,0
2016-03-20T02:47:03.770Z,0
2016-03-20T02:48:03.756Z,0
2016-03-20T02:49:03.759Z,0
2016-03-20T02:50:03.761Z,0
2016-03-20T02:51:03.764Z,0
2016-03-20T02:52:03.767Z,0
2016-03-20T02:53:03.769Z,0
2016-03-20T02:54:03.757Z,0
2016-03-20T02:55:03.744Z,0
2016-03-20T02:56:03.747Z,0
2016-03-20T02:57:03.749Z,0
2016-03-20T02:58:03.752Z,0
2016-03-20T02:59:03.739Z,0
2016-03-20T03:00:03.743Z,0
2016-03-20T03:01:03.776Z,0
2016-03-20T03:02:03.747Z,0
2016-03-20T03:03:03.735Z,0
2016-03-20T03:04:03.768Z,0
2016-03-20T03:05:03.756Z,0
2016-03-20T03:06:03.742Z,0
2016-03-20T03:07:03.752Z,0
2016-03-20T03:08:03.755Z,0
2016-03-20T03:09:03.726Z,0
2016-03-20T03:10:03.744Z,0
2016-03-20T03:11:03.731Z,0
2016-03-20T03:12:03.750Z,0
2016-03-20T03:13:03.752Z,0
2016-03-20T03:14:03.739Z,0
2016-03-20T03:15:03.742Z,0
2016-03-20T03:16:03.744Z,0
2016-03-20T03:17:03.732Z,0
2016-03-20T03:18:03.735Z,0
2016-03-20T03:19:03.737Z,0
2016-03-20T03:20:03.740Z,0
2016-03-20T03:21:03.727Z,0
2016-03-20T03:22:03.729Z,0
2016-03-20T03:23:03.732Z,0
2016-03-20T03:24:03.720Z,0
2016-03-20T03:25:03.722Z,0
2016-03-20T03:26:03.726Z,0
2016-03-20T03:27:03.728Z,0
2016-03-20T03:28:03.731Z,0
2016-03-20T03:29:03.717Z,0
2016-03-20T03:30:03.720Z,0
2016-03-20T03:31:03.722Z,0
2016-03-20T03:32:03.726Z,0
2016-03-20T03:33:03.728Z,0
2016-03-20T03:34:03.715Z,0
2016-03-20T03:35:03.702Z,0
2016-03-20T03:36:03.705Z,0
2016-03-20T03:37:03.723Z,0
2016-03-20T03:38:03.726Z,0
2016-03-20T03:39:03.713Z,0
2016-03-20T03:40:03.715Z,0
2016-03-20T03:41:03.719Z,0
2016-03-20T03:42:03.721Z,0
2016-03-20T03:43:03.708Z,0
2016-03-20T03:44:03.710Z,0
2016-03-20T03:45:03.697Z,0
2016-03-20T03:46:03.700Z,0
2016-03-20T03:47:03.719Z,0
2016-03-20T03:48:03.721Z,0
2016-03-20T03:49:03.708Z,0
2016-03-20T03:50:03.711Z,0
2016-03-20T03:51:03.713Z,0
2016-03-20T03:52:03.717Z,0
2016-03-20T03:53:03.719Z,0
2016-03-20T03:54:03.691Z,0
2016-03-20T03:55:03.724Z,0
2016-03-20T03:56:03.696Z,0
2016-03-20T03:57:03.715Z,0
2016-03-20T03:58:03.701Z,0
2016-03-20T03:59:03.689Z,0
2016-03-20T04:00:03.706Z,0
2016-03-20T04:01:03.695Z,0
2016-03-20T04:02:03.681Z,0
2016-03-20T04:03:03.720Z,0
2016-03-20T04:04:03.691Z,0
2016-03-20T04:05:03.694Z,0
2016-03-20T04:06:03.697Z,0
2016-03-20T04:07:03.793Z,0
2016-03-20T04:08:03.718Z,0
2016-03-20T04:09:03.688Z,0
2016-03-20T04:10:03.691Z,0
2016-03-20T04:11:03.695Z,0
2016-03-20T04:12:03.682Z,0
2016-03-20T04:13:03.699Z,0
2016-03-20T04:14:03.688Z,0
2016-03-20T04:15:03.705Z,0
2016-03-20T04:16:03.676Z,0
2016-03-20T04:17:03.695Z,0
2016-03-20T04:18:03.713Z,0
2016-03-20T04:19:03.668Z,0
2016-03-20T04:20:03.688Z,0
2016-03-20T04:21:03.674Z,0
2016-03-20T04:22:03.676Z,0
2016-03-20T04:23:03.680Z,0
2016-03-20T04:24:03.667Z,0
2016-03-20T04:25:03.684Z,0
2016-03-20T04:26:03.673Z,0
2016-03-20T04:27:03.665Z,0
2016-03-20T04:28:03.655Z,0
2016-03-20T04:29:03.645Z,0
2016-03-20T04:30:03.619Z,0
2016-03-20T04:31:03.609Z,0
2016-03-20T04:32:03.605Z,0
2016-03-20T04:33:03.603Z,0
2016-03-20T04:34:03.587Z,0
2016-03-20T04:35:03.600Z,0
2016-03-20T04:36:03.583Z,0
2016-03-20T04:37:03.724Z,0
2016-03-20T04:38:03.585Z,0
2016-03-20T04:39:03.570Z,0
2016-03-20T04:40:03.571Z,0
2016-03-20T04:41:03.556Z,0
2016-03-20T04:42:03.558Z,0
2016-03-20T04:43:03.576Z,0
2016-03-20T04:44:03.562Z,0
2016-03-20T04:45:03.579Z,0
2016-03-20T04:46:03.581Z,0
2016-03-20T04:47:03.568Z,0
2016-03-20T04:48:03.603Z,0
2016-03-20T04:49:03.558Z,0
2016-03-20T04:50:03.561Z,0
2016-03-20T04:51:03.564Z,0
2016-03-20T04:52:03.550Z,0
2016-03-20T04:53:03.569Z,0
2016-03-20T04:54:03.540Z,0
2016-03-20T04:55:03.558Z,0
2016-03-20T04:56:03.593Z,0
2016-03-20T04:57:03.548Z,0
2016-03-20T04:58:03.566Z,0
2016-03-20T04:59:03.554Z,0
2016-03-20T05:00:03.541Z,0
2016-03-20T05:01:03.558Z,0
2016-03-20T05:02:03.547Z,0
2016-03-20T05:03:03.564Z,0
2016-03-20T05:04:03.536Z,0
2016-03-20T05:05:03.555Z,0
2016-03-20T05:06:03.557Z,0
2016-03-20T05:07:03.528Z,0
2016-03-20T05:08:03.547Z,4
2016-03-20T05:09:03.393Z,0
2016-03-20T05:10:03.536Z,0
2016-03-20T05:11:03.555Z,4
2016-03-20T05:12:03.542Z,4
2016-03-20T05:13:03.560Z,4
2016-03-20T05:14:03.548Z,4
2016-03-20T05:15:03.534Z,8
2016-03-20T05:16:03.553Z,8
2016-03-20T05:17:03.524Z,8
2016-03-20T05:18:03.526Z,8
2016-03-20T05:19:03.561Z,8
2016-03-20T05:20:03.532Z,12
2016-03-20T05:21:03.535Z,16
2016-03-20T05:22:03.522Z,16
2016-03-20T05:23:03.525Z,20
2016-03-20T05:24:03.559Z,20
2016-03-20T05:25:03.514Z,20
2016-03-20T05:26:03.533Z,24
2016-03-20T05:27:03.550Z,28
2016-03-20T05:28:03.522Z,32
2016-03-20T05:29:03.524Z,36
2016-03-20T05:30:03.512Z,36
2016-03-20T05:31:03.514Z,40
2016-03-20T05:32:03.517Z,44
2016-03-20T05:33:03.536Z,48
2016-03-20T05:34:03.538Z,52
2016-03-20T05:35:03.525Z,56
2016-03-20T05:36:03.544Z,60
2016-03-20T05:37:03.515Z,60
2016-03-20T05:38:03.502Z,64
2016-03-20T05:39:03.552Z,68
2016-03-20T05:40:03.492Z,68
2016-03-20T05:41:03.511Z,76
2016-03-20T05:42:03.544Z,76
2016-03-20T05:43:03.500Z,84
2016-03-20T05:44:03.519Z,88
2016-03-20T05:45:03.506Z,92
2016-03-20T05:46:03.508Z,96
2016-03-20T05:47:03.542Z,100
2016-03-20T05:48:03.498Z,104
2016-03-20T05:49:03.517Z,108
2016-03-20T05:50:03.520Z,112
2016-03-20T05:51:03.506Z,120
2016-03-20T05:52:03.478Z,128
2016-03-20T05:53:03.512Z,132
2016-03-20T05:54:03.514Z,140
2016-03-20T05:55:03.500Z,148
2016-03-20T05:56:03.519Z,156
2016-03-20T05:57:03.506Z,164
2016-03-20T05:58:03.494Z,168
2016-03-20T05:59:03.512Z,172
2016-03-20T06:00:03.499Z,180
2016-03-20T06:01:03.502Z,188
2016-03-20T06:02:03.536Z,196
2016-03-20T06:03:03.491Z,196
2016-03-20T06:04:03.494Z,204
2016-03-20T06:05:03.480Z,212
2016-03-20T06:06:03.500Z,224
2016-03-20T06:07:03.486Z,236
2016-03-20T06:08:03.474Z,248
2016-03-20T06:09:03.508Z,256
2016-03-20T06:10:03.494Z,268
2016-03-20T06:11:03.482Z,272
2016-03-20T06:12:03.515Z,276
2016-03-20T06:13:03.487Z,276
2016-03-20T06:14:03.504Z,284
2016-03-20T06:15:03.477Z,288
2016-03-20T06:16:03.479Z,300
2016-03-20T06:17:03.482Z,308
2016-03-20T06:18:03.485Z,312
2016-03-20T06:19:03.503Z,320
2016-03-20T06:20:03.475Z,320
2016-03-20T06:21:03.493Z,320
2016-03-20T06:22:03.480Z,328
2016-03-20T06:23:03.467Z,332
2016-03-20T06:24:03.500Z,344
2016-03-20T06:25:03.472Z,352
2016-03-20T06:26:03.522Z,364
2016-03-20T06:27:03.478Z,376
2016-03-20T06:28:03.464Z,380
2016-03-20T06:29:03.483Z,384
2016-03-20T06:30:03.470Z,392
2016-03-20T06:31:03.317Z,400
2016-03-20T06:32:03.476Z,416
2016-03-20T06:33:03.463Z,428
2016-03-20T06:34:03.341Z,440
2016-03-20T06:35:03.469Z,448
2016-03-20T06:36:03.486Z,456
2016-03-20T06:37:03.457Z,468
2016-03-20T06:38:03.460Z,484
2016-03-20T06:39:03.479Z,500
2016-03-20T06:40:03.450Z,508
2016-03-20T06:41:03.468Z,504
2016-03-20T06:42:03.471Z,508
2016-03-20T06:43:03.443Z,508
2016-03-20T06:44:03.461Z,516
2016-03-20T06:45:03.510Z,524
2016-03-20T06:46:03.466Z,524
2016-03-20T06:47:03.469Z,528
2016-03-20T06:48:03.472Z,536
2016-03-20T06:49:03.459Z,544
2016-03-20T06:50:03.445Z,560
2016-03-20T06:51:03.465Z,576
2016-03-20T06:52:03.451Z,592
2016-03-20T06:53:03.314Z,608
2016-03-20T06:54:03.488Z,616
2016-03-20T06:55:03.444Z,632
2016-03-20T06:56:03.447Z,652
2016-03-20T06:57:03.450Z,672
2016-03-20T06:58:03.452Z,680
2016-03-20T06:59:03.298Z,676
2016-03-20T07:00:03.442Z,688
2016-03-20T07:01:03.460Z,704
2016-03-20T07:02:03.463Z,724
2016-03-20T07:03:03.466Z,748
2016-03-20T07:04:03.452Z,756
2016-03-20T07:05:03.439Z,752
2016-03-20T07:06:03.474Z,752
2016-03-20T07:07:03.444Z,756
2016-03-20T07:08:03.447Z,764
2016-03-20T07:09:03.482Z,772
2016-03-20T07:10:03.452Z,780
2016-03-20T07:11:03.456Z,788
2016-03-20T07:12:03.443Z,796
2016-03-20T07:13:03.446Z,808
2016-03-20T07:14:03.463Z,820
2016-03-20T07:15:03.435Z,828
2016-03-20T07:16:03.454Z,840
2016-03-20T07:17:03.424Z,864
2016-03-20T07:18:03.427Z,892
2016-03-20T07:19:03.445Z,916
2016-03-20T07:20:03.418Z,932
2016-03-20T07:21:03.435Z,944
2016-03-20T07:22:03.423Z,956
2016-03-20T07:23:03.425Z,976
2016-03-20T07:24:03.443Z,980
2016-03-20T07:25:03.446Z,964
2016-03-20T07:26:03.433Z,956
2016-03-20T07:27:03.436Z,976
2016-03-20T07:28:03.423Z,1016
2016-03-20T07:29:03.441Z,1064
2016-03-20T07:30:03.428Z,1120
2016-03-20T07:31:03.431Z,1140
2016-03-20T07:32:03.449Z,1148
2016-03-20T07:33:03.422Z,1152
2016-03-20T07:34:03.439Z,1152
2016-03-20T07:35:03.426Z,1164
2016-03-20T07:36:03.414Z,1188
2016-03-20T07:37:03.432Z,1208
2016-03-20T07:38:03.405Z,1216
2016-03-20T07:39:03.409Z,1232
2016-03-20T07:40:03.427Z,1252
2016-03-20T07:41:03.444Z,1280
2016-03-20T07:42:03.417Z,1292
2016-03-20T07:43:03.435Z,1304
2016-03-20T07:44:03.422Z,1320
2016-03-20T07:45:03.410Z,1328
2016-03-20T07:46:03.443Z,1336
2016-03-20T07:47:03.415Z,1332
2016-03-20T07:48:03.418Z,1292
2016-03-20T07:49:03.420Z,1268
2016-03-20T07:50:03.407Z,1268
2016-03-20T07:51:03.426Z,1284
2016-03-20T07:52:03.396Z,1308
2016-03-20T07:53:03.416Z,1332
2016-03-20T07:54:03.418Z,1364
2016-03-20T07:55:03.404Z,1388
2016-03-20T07:56:03.424Z,1428
2016-03-20T07:57:03.426Z,1476
2016-03-20T07:58:03.413Z,1516
2016-03-20T07:59:03.415Z,1552
2016-03-20T08:00:03.403Z,1588
2016-03-20T08:01:03.420Z,1616
2016-03-20T08:02:03.424Z,1636
2016-03-20T08:03:03.411Z,1652
2016-03-20T08:04:03.444Z,1672
2016-03-20T08:05:03.417Z,1700
2016-03-20T08:06:03.403Z,1728
2016-03-20T08:07:03.250Z,1748
2016-03-20T08:08:03.408Z,1756
2016-03-20T08:09:03.427Z,1768
2016-03-20T08:10:03.398Z,1788
2016-03-20T08:11:03.400Z,1800
2016-03-20T08:12:03.419Z,1792
2016-03-20T08:13:03.391Z,1784
2016-03-20T08:14:03.441Z,1784
2016-03-20T08:15:03.396Z,1812
2016-03-20T08:16:03.414Z,1856
2016-03-20T08:17:03.401Z,1900
2016-03-20T08:18:03.419Z,1940
2016-03-20T08:19:03.407Z,1980
2016-03-20T08:20:03.394Z,2028
2016-03-20T08:21:03.396Z,2076
2016-03-20T08:22:03.399Z,2116
2016-03-20T08:23:03.402Z,2164
2016-03-20T08:24:03.389Z,2204
2016-03-20T08:25:03.407Z,2244
2016-03-20T08:26:03.457Z,2292
2016-03-20T08:27:03.397Z,2360
2016-03-20T08:28:03.385Z,2412
2016-03-20T08:29:03.403Z,2452
2016-03-20T08:30:03.390Z,2504
2016-03-20T08:31:03.408Z,2564
2016-03-20T08:32:03.411Z,2632
2016-03-20T08:33:03.414Z,2708
2016-03-20T08:34:03.384Z,2756
2016-03-20T08:35:03.403Z,2784
2016-03-20T08:36:03.406Z,2796
2016-03-20T08:37:03.393Z,2776
2016-03-20T08:38:03.411Z,2732
2016-03-20T08:39:03.398Z,2692
2016-03-20T08:40:03.542Z,2668
2016-03-20T08:41:03.403Z,2656
2016-03-20T08:42:03.406Z,2660
2016-03-20T08:43:03.408Z,2680
2016-03-20T08:44:03.396Z,2700
2016-03-20T08:45:03.258Z,2712
2016-03-20T08:46:03.386Z,2724
2016-03-20T08:47:03.388Z,2736
2016-03-20T08:48:03.391Z,2748
2016-03-20T08:49:03.410Z,2764
2016-03-20T08:50:03.490Z,2772
2016-03-20T08:51:03.399Z,2764
2016-03-20T08:52:03.386Z,2748
2016-03-20T08:53:03.388Z,2748
2016-03-20T08:54:03.407Z,2772
2016-03-20T08:55:03.238Z,2804
2016-03-20T08:56:03.429Z,2848
2016-03-20T08:57:03.399Z,2892
2016-03-20T08:58:03.387Z,2940
2016-03-20T08:59:03.390Z,2984
2016-03-20T09:00:03.392Z,3004
2016-03-20T09:01:03.410Z,2996
2016-03-20T09:02:03.381Z,2976
2016-03-20T09:03:03.401Z,2980
2016-03-20T09:04:03.434Z,3000
2016-03-20T09:05:03.405Z,3016
2016-03-20T09:06:03.408Z,3020
2016-03-20T09:07:03.083Z,3024
2016-03-20T09:08:03.383Z,3048
2016-03-20T09:09:03.416Z,3084
2016-03-20T09:10:03.403Z,3124
2016-03-20T09:11:03.406Z,3160
2016-03-20T09:12:03.425Z,3168
2016-03-20T09:13:03.380Z,3172
2016-03-20T09:14:03.414Z,3192
2016-03-20T09:15:03.386Z,3232
2016-03-20T09:16:03.388Z,3272
2016-03-20T09:17:03.391Z,3288
2016-03-20T09:18:03.394Z,3288
2016-03-20T09:19:03.427Z,3308
2016-03-20T09:20:03.399Z,3320
2016-03-20T09:21:03.402Z,3328
2016-03-20T09:22:03.388Z,3356
2016-03-20T09:23:03.391Z,3428
2016-03-20T09:24:03.457Z,3544
2016-03-20T09:25:03.381Z,3652
2016-03-20T09:26:03.415Z,3752
2016-03-20T09:27:03.387Z,3820
2016-03-20T09:28:03.389Z,3824
2016-03-20T09:29:03.424Z,3776
2016-03-20T09:30:03.379Z,3728
2016-03-20T09:31:03.397Z,3716
2016-03-20T09:32:03.401Z,3728
2016-03-20T09:33:03.387Z,3720
2016-03-20T09:34:03.420Z,3688
2016-03-20T09:35:03.392Z,3660
2016-03-20T09:36:03.395Z,3632
2016-03-20T09:37:03.398Z,3592
2016-03-20T09:38:03.401Z,3540
2016-03-20T09:39:03.403Z,3496
2016-03-20T09:40:03.390Z,3496
2016-03-20T09:41:03.393Z,3536
2016-03-20T09:42:03.395Z,3592
2016-03-20T09:43:03.413Z,3628
2016-03-20T09:44:03.401Z,3660
2016-03-20T09:45:03.388Z,3668
2016-03-20T09:46:03.406Z,3652
2016-03-20T09:47:03.409Z,3652
2016-03-20T09:48:03.443Z,3676
2016-03-20T09:49:03.414Z,3716
2016-03-20T09:50:03.402Z,3764
2016-03-20T09:51:03.389Z,3844
2016-03-20T09:52:03.407Z,3920
2016-03-20T09:53:03.394Z,3980
2016-03-20T09:54:03.397Z,4064
2016-03-20T09:55:03.399Z,4136
2016-03-20T09:56:03.402Z,4180
2016-03-20T09:57:03.436Z,4248
2016-03-20T09:58:03.407Z,4320
2016-03-20T09:59:03.426Z,4416
2016-03-20T10:00:03.443Z,4468
2016-03-20T10:01:03.400Z,4464
2016-03-20T10:02:03.434Z,4440
2016-03-20T10:03:03.406Z,4448
2016-03-20T10:04:03.408Z,4492
2016-03-20T10:05:03.426Z,4528
2016-03-20T10:06:03.414Z,4560
2016-03-20T10:07:03.431Z,4596
2016-03-20T10:08:03.434Z,4624
2016-03-20T10:09:03.421Z,4684
2016-03-20T10:10:03.425Z,4752
2016-03-20T10:11:03.427Z,4732
2016-03-20T10:12:03.430Z,4640
2016-03-20T10:13:03.401Z,4524
2016-03-20T10:14:03.419Z,4456
2016-03-20T10:15:03.406Z,4456
2016-03-20T10:16:03.408Z,4472
2016-03-20T10:17:03.411Z,4492
2016-03-20T10:18:03.414Z,4540
2016-03-20T10:19:03.416Z,4584
2016-03-20T10:20:03.436Z,4624
2016-03-20T10:21:03.422Z,4716
2016-03-20T10:22:03.425Z,4820
2016-03-20T10:23:03.428Z,4888
2016-03-20T10:24:03.430Z,4944
2016-03-20T10:25:03.433Z,5040
2016-03-20T10:26:03.436Z,5164
2016-03-20T10:27:03.438Z,5284
2016-03-20T10:28:03.423Z,5412
2016-03-20T10:29:03.476Z,5544
2016-03-20T10:30:03.463Z,5620
2016-03-20T10:31:03.432Z,5644
2016-03-20T10:32:03.452Z,5692
2016-03-20T10:33:03.437Z,5768
2016-03-20T10:34:03.424Z,5820
2016-03-20T10:35:03.426Z,5888
2016-03-20T10:36:03.429Z,5940
2016-03-20T10:37:03.431Z,5972
2016-03-20T10:38:03.435Z,5964
2016-03-20T10:39:03.453Z,5932
2016-03-20T10:40:03.470Z,5864
2016-03-20T10:41:03.458Z,5856
2016-03-20T10:42:03.445Z,5820
2016-03-20T10:43:03.447Z,5716
2016-03-20T10:44:03.434Z,5596
2016-03-20T10:45:03.437Z,5504
2016-03-20T10:46:03.440Z,5492
2016-03-20T10:47:03.458Z,5504
2016-03-20T10:48:03.477Z,5556
2016-03-20T10:49:03.495Z,5672
2016-03-20T10:50:03.466Z,5792
2016-03-20T10:51:03.453Z,5924
2016-03-20T10:52:03.456Z,6084
2016-03-20T10:53:03.443Z,6200
2016-03-20T10:54:03.478Z,6284
2016-03-20T10:55:03.449Z,6316
2016-03-20T10:56:03.451Z,6192
2016-03-20T10:57:03.454Z,6108
2016-03-20T10:58:03.457Z,6080
2016-03-20T10:59:03.459Z,6108
2016-03-20T11:00:03.477Z,6120
2016-03-20T11:01:03.480Z,6116
2016-03-20T11:02:03.483Z,6104
2016-03-20T11:03:03.532Z,6060
2016-03-20T11:04:03.473Z,6096
2016-03-20T11:05:03.491Z,6188
2016-03-20T11:06:03.478Z,6272
2016-03-20T11:07:03.481Z,6316
2016-03-20T11:08:03.483Z,6260
2016-03-20T11:09:03.470Z,6100
2016-03-20T11:10:03.474Z,6052
2016-03-20T11:11:03.476Z,6096
2016-03-20T11:12:03.478Z,6168
2016-03-20T11:13:03.481Z,6280
2016-03-20T11:14:03.484Z,6420
2016-03-20T11:15:03.486Z,6544
2016-03-20T11:16:03.505Z,6636
2016-03-20T11:17:03.508Z,6768
2016-03-20T11:18:03.511Z,6928
2016-03-20T11:19:03.497Z,6992
2016-03-20T11:20:03.485Z,6992
2016-03-20T11:21:03.503Z,7008
2016-03-20T11:22:03.505Z,7000
2016-03-20T11:23:03.508Z,6904
2016-03-20T11:24:03.527Z,6760
2016-03-20T11:25:03.513Z,6608
2016-03-20T11:26:03.517Z,6560
2016-03-20T11:27:03.519Z,6548
2016-03-20T11:28:03.522Z,6532
2016-03-20T11:29:03.509Z,6624
2016-03-20T11:30:03.527Z,6836
2016-03-20T11:31:03.515Z,7032
2016-03-20T11:32:03.532Z,7012
2016-03-20T11:33:03.551Z,6924
2016-03-20T11:34:03.523Z,6796
2016-03-20T11:35:03.541Z,6680
2016-03-20T11:36:03.543Z,6520
2016-03-20T11:37:03.530Z,6316
2016-03-20T11:38:03.549Z,6240
2016-03-20T11:39:03.536Z,6328
2016-03-20T11:40:03.538Z,6304
2016-03-20T11:41:05.528Z,6340
2016-03-20T11:42:03.544Z,6420
2016-03-20T11:43:03.562Z,6320
2016-03-20T11:44:03.550Z,6036
2016-03-20T11:45:03.537Z,5668
2016-03-20T11:46:03.555Z,5524
2016-03-20T11:47:03.541Z,5484
2016-03-20T11:48:03.544Z,5200
2016-03-20T11:49:32.222Z,5128
2016-03-20T11:50:03.566Z,5196
2016-03-20T11:51:03.568Z,5380
2016-03-20T11:52:03.571Z,5496
2016-03-20T11:53:03.558Z,5476
2016-03-20T11:54:03.560Z,5640
2016-03-20T11:55:03.594Z,5716
2016-03-20T11:56:03.565Z,5748
2016-03-20T11:57:03.568Z,5616
2016-03-20T11:58:03.587Z,5600
2016-03-20T11:59:03.590Z,5580
2016-03-20T12:00:03.593Z,5552
2016-03-20T12:01:03.580Z,5416
2016-03-20T12:02:03.598Z,5236
2016-03-20T12:03:03.601Z,5152
2016-03-20T12:04:03.604Z,4964
2016-03-20T12:05:03.637Z,4780
2016-03-20T12:06:03.576Z,4580
2016-03-20T12:07:03.611Z,4476
2016-03-20T12:08:03.614Z,4492
2016-03-20T12:09:03.600Z,4416
2016-03-20T12:10:03.620Z,4176
2016-03-20T12:11:03.606Z,3924
2016-03-20T12:12:03.609Z,3712
2016-03-20T12:13:03.659Z,3540
2016-03-20T12:14:03.615Z,3432
2016-03-20T12:15:03.648Z,3320
2016-03-20T12:16:03.635Z,3224
2016-03-20T12:17:03.638Z,3128
2016-03-20T12:18:03.656Z,3088
2016-03-20T12:19:03.643Z,3048
2016-03-20T12:20:03.646Z,3048
2016-03-20T12:21:03.633Z,3048
2016-03-20T12:22:03.652Z,3016
2016-03-20T12:23:03.654Z,3000
2016-03-20T12:24:03.641Z,2984
2016-03-20T12:25:03.660Z,2972
2016-03-20T12:26:03.662Z,2940
2016-03-20T12:27:03.650Z,2928
2016-03-20T12:28:03.683Z,2912
2016-03-20T12:29:03.654Z,2900
2016-03-20T12:30:03.658Z,2876
2016-03-20T12:31:03.676Z,2852
2016-03-20T12:32:03.662Z,2832
2016-03-20T12:33:03.682Z,2832
2016-03-20T12:34:03.684Z,2828
2016-03-20T12:35:03.671Z,2828
2016-03-20T12:36:03.658Z,2824
2016-03-20T12:37:03.692Z,2820
2016-03-20T12:38:03.695Z,2804
2016-03-20T12:39:03.682Z,2788
2016-03-20T12:40:03.700Z,2776
2016-03-20T12:41:03.718Z,2760
2016-03-20T12:42:03.706Z,2756
2016-03-20T12:43:03.724Z,2748
2016-03-20T12:44:03.711Z,2736
2016-03-20T12:45:03.697Z,2736
2016-03-20T12:46:03.700Z,2736
2016-03-20T12:47:03.703Z,2732
2016-03-20T12:48:03.722Z,2724
2016-03-20T12:49:03.725Z,2720
2016-03-20T12:50:03.727Z,2712
2016-03-20T12:51:03.714Z,2704
2016-03-20T12:52:03.717Z,2696
2016-03-20T12:53:03.781Z,2676
2016-03-20T12:54:03.722Z,2660
2016-03-20T12:55:03.741Z,2664
2016-03-20T12:56:03.727Z,2652
2016-03-20T12:57:03.730Z,2640
2016-03-20T12:58:03.748Z,2632
2016-03-20T12:59:03.735Z,2620
2016-03-20T13:00:03.722Z,2608
2016-03-20T13:01:03.724Z,2592
2016-03-20T13:02:03.727Z,2572
2016-03-20T13:03:03.777Z,2552
2016-03-20T13:04:03.765Z,2536
2016-03-20T13:05:03.767Z,2524
2016-03-20T13:06:03.738Z,2512
2016-03-20T13:07:03.757Z,2504
2016-03-20T13:08:03.743Z,2480
2016-03-20T13:09:03.732Z,2496
2016-03-20T13:10:03.765Z,2496
2016-03-20T13:11:03.752Z,2488
2016-03-20T13:12:03.754Z,2484
2016-03-20T13:13:03.757Z,2484
2016-03-20T13:14:03.760Z,2484
2016-03-20T13:15:03.762Z,2476
2016-03-20T13:16:03.765Z,2468
2016-03-20T13:17:03.800Z,2460
2016-03-20T13:18:03.771Z,2456
2016-03-20T13:19:03.773Z,2452
2016-03-20T13:20:03.792Z,2440
2016-03-20T13:21:03.764Z,2432
2016-03-20T13:22:03.797Z,2424
2016-03-20T13:23:03.784Z,2416
2016-03-20T13:24:03.787Z,2408
2016-03-20T13:25:03.775Z,2400
2016-03-20T13:26:03.777Z,2392
2016-03-20T13:27:03.795Z,2384
2016-03-20T13:28:03.782Z,2380
2016-03-20T13:29:03.816Z,2376
2016-03-20T13:30:03.788Z,2372
2016-03-20T13:31:03.806Z,2368
2016-03-20T13:32:03.638Z,2368
2016-03-20T13:33:03.781Z,2364
2016-03-20T13:34:03.801Z,2356
2016-03-20T13:35:03.758Z,2352
2016-03-20T13:36:03.745Z,2336
2016-03-20T13:37:03.749Z,2328
2016-03-20T13:38:03.722Z,2316
2016-03-20T13:39:03.719Z,2312
2016-03-20T13:40:03.716Z,2304
2016-03-20T13:41:03.714Z,2300
2016-03-20T13:42:03.727Z,2296
2016-03-20T13:43:03.708Z,2296
2016-03-20T13:44:03.725Z,2288
2016-03-20T13:45:03.741Z,2284
2016-03-20T13:46:03.711Z,2276
2016-03-20T13:47:03.728Z,2272
2016-03-20T13:48:03.712Z,2260
2016-03-20T13:49:03.714Z,2252
2016-03-20T13:50:03.715Z,2244
2016-03-20T13:51:03.717Z,2236
2016-03-20T13:52:03.719Z,2228
2016-03-20T13:53:03.705Z,2228
2016-03-20T13:54:03.708Z,2224
2016-03-20T13:55:03.711Z,2220